EST,Max TemperatureF,Mean TemperatureF,Min TemperatureF,Max Dew PointF,MeanDew PointF,Min DewpointF,Max Humidity, Mean Humidity, Min Humidity, Max Sea Level PressureIn, Mean Sea Level PressureIn, Min Sea Level PressureIn, Max VisibilityMiles, Mean VisibilityMiles, Min VisibilityMiles, Max Wind SpeedMPH, Mean Wind SpeedMPH, Max Gust SpeedMPH,PrecipitationIn, CloudCover, Events, WindDirDegrees
2014-1-1,33,27,21,22,14,7,69,58,46,30.42,30.35,30.26,10,10,10,17,6,22,0.00,6,,294
2014-1-2,33,24,15,25,21,12,92,77,61,30.23,29.97,29.69,10,7,0,24,16,30,0.20,8,Fog-Snow,21
2014-1-3,19,14,8,11,4,-5,92,69,46,30.48,30.06,29.66,10,6,0,28,15,39,0.32,4,Fog-Snow,336
2014-1-4,25,16,6,11,2,-5,69,53,36,30.54,30.44,30.32,10,10,10,14,5,17,0.00,3,,221
2014-1-5,48,31,14,47,25,10,100,81,62,30.32,30.18,29.76,10,3,0,10,3,13,0.15,7,Fog-Rain,24
2014-1-6,58,37,16,56,39,-6,100,73,45,29.77,29.55,29.42,10,7,0,38,16,51,0.37,7,Fog-Rain,228
2014-1-7,16,10,3,-8,-12,-16,46,39,32,30.40,30.17,29.83,10,10,10,36,22,47,0.00,1,,263
2014-1-8,22,15,8,2,-3,-8,57,48,39,30.58,30.50,30.43,10,10,10,18,10,24,0.00,4,,256
2014-1-9,34,27,19,17,9,2,63,49,35,30.66,30.60,30.51,10,10,10,15,4,17,0.00,4,,274
2014-1-10,35,31,26,34,27,17,100,79,58,30.58,30.42,30.22,10,4,1,7,4,9,0.17,8,Rain-Snow,22
2014-1-11,61,48,35,59,51,34,100,92,84,30.18,29.71,29.38,10,4,1,25,9,32,0.59,8,Rain,180
2014-1-12,54,44,33,52,31,25,67,56,45,30.09,29.76,29.41,10,10,10,26,13,41,0.03,5,Rain,261
2014-1-13,53,42,31,40,33,26,82,67,52,30.16,30.04,29.90,10,10,8,12,5,15,0.00,5,,162
2014-1-14,49,45,40,47,44,36,93,79,65,29.88,29.77,29.68,10,6,2,16,6,21,0.35,7,Rain,241
2014-1-15,46,39,32,41,37,33,100,88,76,30.02,29.94,29.87,9,3,0,8,3,14,0.00,6,Fog,185
2014-1-16,43,39,34,39,32,29,93,79,65,29.96,29.90,29.86,10,9,3,13,7,20,T,8,,324
2014-1-17,46,37,27,29,26,22,85,65,45,30.01,29.94,29.88,10,10,10,12,4,15,0.00,4,,230
2014-1-18,41,34,26,34,29,14,89,74,59,29.87,29.76,29.69,10,8,1,21,11,26,0.11,7,Rain-Snow,311
2014-1-19,37,30,22,23,17,13,65,56,47,29.86,29.76,29.67,10,10,10,28,13,35,0.00,4,,238
2014-1-20,47,40,32,28,24,18,64,51,38,29.90,29.69,29.59,10,10,1,26,14,33,0.00,7,,253
2014-1-21,32,22,11,19,12,5,92,67,42,30.01,29.94,29.84,10,2,0,26,17,32,0.40,8,Fog-Snow,10
2014-1-22,16,11,5,2,-4,-6,76,58,40,30.02,29.87,29.80,10,10,6,30,15,35,T,4,Snow,325
2014-1-23,21,13,5,4,0,-6,64,57,49,30.31,30.16,30.03,10,10,10,21,11,26,0.00,4,,272
2014-1-24,20,14,8,3,-1,-4,66,53,39,30.40,30.30,30.11,10,10,10,21,12,26,0.00,3,,259
2014-1-25,26,22,17,21,14,3,88,69,49,30.05,29.65,29.47,10,7,1,24,13,29,0.04,7,Snow,214
2014-1-26,28,22,16,15,6,-2,84,63,41,29.92,29.81,29.52,10,10,9,29,12,37,T,5,,247
2014-1-27,43,32,20,27,15,-2,75,54,32,30.10,29.78,29.63,10,10,9,28,11,36,T,7,Rain,304
2014-1-28,20,16,12,-2,-5,-11,53,41,28,30.39,30.29,30.12,10,10,10,20,10,29,0.00,7,,296
2014-1-29,22,17,12,9,2,-4,80,57,33,30.32,30.20,30.12,10,8,2,22,11,28,0.05,4,Snow,269
2014-1-30,28,19,10,10,3,-1,58,46,33,30.48,30.37,30.22,10,10,10,13,6,15,0.00,1,,219
2014-1-31,39,31,22,19,14,8,60,49,37,30.25,30.17,30.12,10,10,10,14,8,18,T,7,Snow,246